sensor_id;sensor_type;location;lat;lon;timestamp;pressure;altitude;pressure_sealevel;temperature;humidity
53960;BME280;39866;48.638;-2.020;2023-10-31T00:01:47;99703.78;;;16.78;100.00
53960;BME280;39866;48.638;-2.020;2023-10-31T00:04:14;99706.69;;;16.75;100.00
53960;BME280;39866;48.638;-2.020;2023-10-31T00:06:42;99704.16;;;16.72;100.00
53960;BME280;39866;48.638;-2.020;2023-10-31T00:09:08;99710.09;;;16.77;100.00
53960;BME280;39866;48.638;-2.020;2023-10-31T00:11:36;99715.72;;;16.74;100.00
53960;BME280;39866;48.638;-2.020;2023-10-31T00:14:01;99712.06;;;16.75;100.00
53960;BME280;39866;48.638;-2.020;2023-10-31T00:16:27;99722.94;;;16.74;100.00
53960;BME280;39866;48.638;-2.020;2023-10-31T00:18:52;99723.78;;;16.74;100.00
53960;BME280;39866;48.638;-2.020;2023-10-31T00:21:19;99723.78;;;16.74;100.00
53960;BME280;39866;48.638;-2.020;2023-10-31T00:23:48;99724.16;;;16.68;100.00
53960;BME280;39866;48.638;-2.020;2023-10-31T00:26:14;99722.25;;;16.70;100.00
53960;BME280;39866;48.638;-2.020;2023-10-31T00:28:39;99734.06;;;16.68;100.00
53960;BME280;39866;48.638;-2.020;2023-10-31T00:31:05;99733.84;;;16.71;100.00
53960;BME280;39866;48.638;-2.020;2023-10-31T00:33:32;99736.63;;;16.69;100.00
53960;BME280;39866;48.638;-2.020;2023-10-31T00:35:57;99733.31;;;16.66;100.00
53960;BME280;39866;48.638;-2.020;2023-10-31T00:38:23;99742.00;;;16.69;100.00
53960;BME280;39866;48.638;-2.020;2023-10-31T00:40:48;99743.75;;;16.70;100.00
53960;BME280;39866;48.638;-2.020;2023-10-31T00:43:13;99736.88;;;16.66;100.00
53960;BME280;39866;48.638;-2.020;2023-10-31T00:45:39;99738.47;;;16.69;100.00
53960;BME280;39866;48.638;-2.020;2023-10-31T00:48:04;99742.00;;;16.69;100.00
53960;BME280;39866;48.638;-2.020;2023-10-31T00:50:30;99750.66;;;16.74;100.00
53960;BME280;39866;48.638;-2.020;2023-10-31T00:52:55;99746.22;;;16.73;100.00
53960;BME280;39866;48.638;-2.020;2023-10-31T00:55:20;99755.06;;;16.75;100.00
53960;BME280;39866;48.638;-2.020;2023-10-31T00:57:46;99756.03;;;16.74;100.00
53960;BME280;39866;48.638;-2.020;2023-10-31T01:00:11;99760.97;;;16.80;100.00
53960;BME280;39866;48.638;-2.020;2023-10-31T01:02:37;99760.22;;;16.78;100.00
53960;BME280;39866;48.638;-2.020;2023-10-31T01:05:02;99758.41;;;16.79;100.00
53960;BME280;39866;48.638;-2.020;2023-10-31T01:07:28;99756.56;;;16.79;100.00
53960;BME280;39866;48.638;-2.020;2023-10-31T01:09:53;99753.88;;;16.79;100.00
53960;BME280;39866;48.638;-2.020;2023-10-31T01:12:18;99756.13;;;16.86;100.00
53960;BME280;39866;48.638;-2.020;2023-10-31T01:14:44;99754.41;;;16.84;100.00
53960;BME280;39866;48.638;-2.020;2023-10-31T01:17:09;99762.06;;;16.78;100.00
53960;BME280;39866;48.638;-2.020;2023-10-31T01:19:35;99759.47;;;16.76;100.00
53960;BME280;39866;48.638;-2.020;2023-10-31T01:22:00;99765.81;;;16.75;100.00
53960;BME280;39866;48.638;-2.020;2023-10-31T01:24:26;99774.72;;;16.76;100.00
53960;BME280;39866;48.638;-2.020;2023-10-31T01:26:51;99781.38;;;16.70;100.00
53960;BME280;39866;48.638;-2.020;2023-10-31T01:29:16;99790.28;;;16.71;100.00
53960;BME280;39866;48.638;-2.020;2023-10-31T01:31:42;99780.50;;;16.70;100.00
53960;BME280;39866;48.638;-2.020;2023-10-31T01:34:07;99784.47;;;16.64;100.00
53960;BME280;39866;48.638;-2.020;2023-10-31T01:36:35;99789.09;;;16.62;100.00
53960;BME280;39866;48.638;-2.020;2023-10-31T01:39:01;99797.56;;;16.69;100.00
53960;BME280;39866;48.638;-2.020;2023-10-31T01:41:27;99802.09;;;16.68;100.00
53960;BME280;39866;48.638;-2.020;2023-10-31T01:43:52;99801.34;;;16.66;100.00
53960;BME280;39866;48.638;-2.020;2023-10-31T01:46:18;99794.69;;;16.59;100.00
53960;BME280;39866;48.638;-2.020;2023-10-31T01:48:43;99804.25;;;16.63;100.00
53960;BME280;39866;48.638;-2.020;2023-10-31T01:51:09;99804.44;;;16.60;100.00
53960;BME280;39866;48.638;-2.020;2023-10-31T01:53:36;99814.13;;;16.50;100.00
53960;BME280;39866;48.638;-2.020;2023-10-31T01:56:03;99814.47;;;16.58;100.00
53960;BME280;39866;48.638;-2.020;2023-10-31T01:58:31;99818.31;;;16.54;100.00
53960;BME280;39866;48.638;-2.020;2023-10-31T02:00:59;99826.06;;;16.58;100.00
53960;BME280;39866;48.638;-2.020;2023-10-31T02:03:24;99828.63;;;16.60;100.00
53960;BME280;39866;48.638;-2.020;2023-10-31T02:05:51;99844.97;;;16.57;100.00
53960;BME280;39866;48.638;-2.020;2023-10-31T02:08:16;99842.25;;;16.57;100.00
53960;BME280;39866;48.638;-2.020;2023-10-31T02:10:42;99853.59;;;16.62;100.00
53960;BME280;39866;48.638;-2.020;2023-10-31T02:13:17;99848.63;;;16.56;100.00
53960;BME280;39866;48.638;-2.020;2023-10-31T02:15:43;99853.78;;;16.59;100.00
53960;BME280;39866;48.638;-2.020;2023-10-31T02:18:09;99848.97;;;16.64;100.00
53960;BME280;39866;48.638;-2.020;2023-10-31T02:20:35;99847.97;;;16.65;100.00
53960;BME280;39866;48.638;-2.020;2023-10-31T02:23:02;99851.50;;;16.53;100.00
53960;BME280;39866;48.638;-2.020;2023-10-31T02:25:27;99851.22;;;16.57;100.00
53960;BME280;39866;48.638;-2.020;2023-10-31T02:27:53;99852.47;;;16.52;100.00
53960;BME280;39866;48.638;-2.020;2023-10-31T02:30:18;99856.78;;;16.54;100.00
53960;BME280;39866;48.638;-2.020;2023-10-31T02:32:44;99861.31;;;16.54;100.00
53960;BME280;39866;48.638;-2.020;2023-10-31T02:35:12;99869.88;;;16.46;100.00
53960;BME280;39866;48.638;-2.020;2023-10-31T02:37:37;99864.38;;;16.48;100.00
53960;BME280;39866;48.638;-2.020;2023-10-31T02:40:06;99864.81;;;16.42;100.00
53960;BME280;39866;48.638;-2.020;2023-10-31T02:42:32;99875.25;;;16.46;100.00
53960;BME280;39866;48.638;-2.020;2023-10-31T02:45:00;99866.03;;;16.50;100.00
53960;BME280;39866;48.638;-2.020;2023-10-31T02:47:25;99880.19;;;16.52;100.00
53960;BME280;39866;48.638;-2.020;2023-10-31T02:49:50;99885.69;;;16.51;100.00
53960;BME280;39866;48.638;-2.020;2023-10-31T02:52:16;99876.31;;;16.44;100.00
53960;BME280;39866;48.638;-2.020;2023-10-31T02:54:44;99880.06;;;16.41;100.00
53960;BME280;39866;48.638;-2.020;2023-10-31T02:57:09;99882.22;;;16.49;100.00
53960;BME280;39866;48.638;-2.020;2023-10-31T02:59:35;99881.28;;;16.50;100.00
53960;BME280;39866;48.638;-2.020;2023-10-31T03:02:00;99875.44;;;16.43;100.00
53960;BME280;39866;48.638;-2.020;2023-10-31T03:04:26;99879.00;;;16.44;100.00
53960;BME280;39866;48.638;-2.020;2023-10-31T03:06:51;99883.56;;;16.29;100.00
53960;BME280;39866;48.638;-2.020;2023-10-31T03:09:16;99894.94;;;16.32;100.00
53960;BME280;39866;48.638;-2.020;2023-10-31T03:11:45;99893.44;;;16.28;100.00
53960;BME280;39866;48.638;-2.020;2023-10-31T03:14:10;99886.88;;;16.32;100.00
53960;BME280;39866;48.638;-2.020;2023-10-31T03:16:36;99889.81;;;16.29;100.00
53960;BME280;39866;48.638;-2.020;2023-10-31T03:19:01;99902.38;;;16.29;100.00
53960;BME280;39866;48.638;-2.020;2023-10-31T03:21:27;99903.81;;;16.20;100.00
53960;BME280;39866;48.638;-2.020;2023-10-31T03:23:55;99909.41;;;16.17;100.00
53960;BME280;39866;48.638;-2.020;2023-10-31T03:26:23;99908.53;;;16.17;100.00
53960;BME280;39866;48.638;-2.020;2023-10-31T03:28:49;99905.88;;;16.17;100.00
53960;BME280;39866;48.638;-2.020;2023-10-31T03:31:15;99910.63;;;16.26;100.00
53960;BME280;39866;48.638;-2.020;2023-10-31T03:33:41;99906.50;;;16.20;100.00
53960;BME280;39866;48.638;-2.020;2023-10-31T03:36:07;99918.31;;;16.18;100.00
53960;BME280;39866;48.638;-2.020;2023-10-31T03:38:33;99927.97;;;16.20;100.00
53960;BME280;39866;48.638;-2.020;2023-10-31T03:40:59;99911.88;;;16.20;100.00
53960;BME280;39866;48.638;-2.020;2023-10-31T03:43:24;99916.19;;;16.23;100.00
53960;BME280;39866;48.638;-2.020;2023-10-31T03:45:51;99921.75;;;16.20;100.00
53960;BME280;39866;48.638;-2.020;2023-10-31T03:48:17;99927.97;;;16.20;100.00
53960;BME280;39866;48.638;-2.020;2023-10-31T03:50:42;99925.41;;;16.19;100.00
53960;BME280;39866;48.638;-2.020;2023-10-31T03:53:11;99932.59;;;16.18;100.00
53960;BME280;39866;48.638;-2.020;2023-10-31T03:55:36;99935.66;;;16.12;100.00
53960;BME280;39866;48.638;-2.020;2023-10-31T03:58:02;99930.28;;;16.12;100.00
53960;BME280;39866;48.638;-2.020;2023-10-31T04:00:27;99948.53;;;16.07;100.00
53960;BME280;39866;48.638;-2.020;2023-10-31T04:02:53;99942.59;;;16.02;100.00
53960;BME280;39866;48.638;-2.020;2023-10-31T04:05:18;99944.44;;;16.01;100.00
53960;BME280;39866;48.638;-2.020;2023-10-31T04:07:45;99946.34;;;15.99;100.00
53960;BME280;39866;48.638;-2.020;2023-10-31T04:10:10;99956.22;;;15.99;100.00
53960;BME280;39866;48.638;-2.020;2023-10-31T04:12:36;99957.06;;;15.99;100.00
53960;BME280;39866;48.638;-2.020;2023-10-31T04:15:02;99961.03;;;15.94;100.00
53960;BME280;39866;48.638;-2.020;2023-10-31T04:17:28;99972.13;;;16.02;100.00
53960;BME280;39866;48.638;-2.020;2023-10-31T04:19:56;99965.97;;;16.00;100.00
53960;BME280;39866;48.638;-2.020;2023-10-31T04:22:21;99966.75;;;16.02;100.00
53960;BME280;39866;48.638;-2.020;2023-10-31T04:24:47;99971.66;;;16.09;100.00
53960;BME280;39866;48.638;-2.020;2023-10-31T04:27:12;99974.59;;;16.19;100.00
53960;BME280;39866;48.638;-2.020;2023-10-31T04:29:40;99986.13;;;16.21;100.00
53960;BME280;39866;48.638;-2.020;2023-10-31T04:32:05;99983.44;;;16.21;100.00
53960;BME280;39866;48.638;-2.020;2023-10-31T04:34:31;99996.09;;;16.19;100.00
53960;BME280;39866;48.638;-2.020;2023-10-31T04:36:57;100002.81;;;16.26;100.00
53960;BME280;39866;48.638;-2.020;2023-10-31T04:39:22;100003.53;;;16.28;100.00
53960;BME280;39866;48.638;-2.020;2023-10-31T04:41:47;100002.59;;;16.29;100.00
53960;BME280;39866;48.638;-2.020;2023-10-31T04:44:13;100016.13;;;16.28;100.00
53960;BME280;39866;48.638;-2.020;2023-10-31T04:46:38;100004.63;;;16.26;100.00
53960;BME280;39866;48.638;-2.020;2023-10-31T04:49:04;100012.00;;;16.22;100.00
53960;BME280;39866;48.638;-2.020;2023-10-31T04:51:33;100016.41;;;16.23;100.00
53960;BME280;39866;48.638;-2.020;2023-10-31T04:53:59;100017.50;;;16.21;100.00
53960;BME280;39866;48.638;-2.020;2023-10-31T04:56:25;100012.59;;;16.13;100.00
53960;BME280;39866;48.638;-2.020;2023-10-31T04:58:50;100011.53;;;16.16;100.00
53960;BME280;39866;48.638;-2.020;2023-10-31T05:01:15;100014.13;;;16.17;100.00
53960;BME280;39866;48.638;-2.020;2023-10-31T05:03:41;100017.69;;;16.18;100.00
53960;BME280;39866;48.638;-2.020;2023-10-31T05:06:06;100013.91;;;16.20;100.00
53960;BME280;39866;48.638;-2.020;2023-10-31T05:08:32;100021.97;;;16.20;100.00
53960;BME280;39866;48.638;-2.020;2023-10-31T05:10:58;100018.34;;;16.21;100.00
53960;BME280;39866;48.638;-2.020;2023-10-31T05:13:24;100017.56;;;16.19;100.00
53960;BME280;39866;48.638;-2.020;2023-10-31T05:15:50;100015.75;;;16.20;100.00
53960;BME280;39866;48.638;-2.020;2023-10-31T05:18:18;100028.31;;;16.19;100.00
53960;BME280;39866;48.638;-2.020;2023-10-31T05:20:44;100037.91;;;16.23;100.00
53960;BME280;39866;48.638;-2.020;2023-10-31T05:23:09;100034.06;;;16.27;100.00
53960;BME280;39866;48.638;-2.020;2023-10-31T05:25:35;100044.44;;;16.33;100.00
53960;BME280;39866;48.638;-2.020;2023-10-31T05:28:00;100046.91;;;16.37;100.00
53960;BME280;39866;48.638;-2.020;2023-10-31T05:30:26;100040.59;;;16.38;100.00
53960;BME280;39866;48.638;-2.020;2023-10-31T05:32:52;100056.69;;;16.38;100.00
53960;BME280;39866;48.638;-2.020;2023-10-31T05:35:18;100050.56;;;16.35;100.00
53960;BME280;39866;48.638;-2.020;2023-10-31T05:37:45;100058.53;;;16.37;100.00
53960;BME280;39866;48.638;-2.020;2023-10-31T05:40:11;100059.94;;;16.28;100.00
53960;BME280;39866;48.638;-2.020;2023-10-31T05:42:37;100069.84;;;16.28;100.00
53960;BME280;39866;48.638;-2.020;2023-10-31T05:45:02;100062.25;;;16.34;100.00
53960;BME280;39866;48.638;-2.020;2023-10-31T05:47:28;100062.81;;;16.40;100.00
53960;BME280;39866;48.638;-2.020;2023-10-31T05:49:53;100062.63;;;16.43;100.00
53960;BME280;39866;48.638;-2.020;2023-10-31T05:52:19;100060.94;;;16.42;100.00
53960;BME280;39866;48.638;-2.020;2023-10-31T05:54:44;100057.84;;;16.33;100.00
53960;BME280;39866;48.638;-2.020;2023-10-31T05:57:10;100074.91;;;16.47;100.00
53960;BME280;39866;48.638;-2.020;2023-10-31T05:59:35;100074.25;;;16.43;100.00
53960;BME280;39866;48.638;-2.020;2023-10-31T06:02:00;100080.66;;;16.41;100.00
53960;BME280;39866;48.638;-2.020;2023-10-31T06:04:26;100080.66;;;16.41;100.00
53960;BME280;39866;48.638;-2.020;2023-10-31T06:06:51;100091.03;;;16.32;100.00
53960;BME280;39866;48.638;-2.020;2023-10-31T06:09:17;100091.81;;;16.34;100.00
53960;BME280;39866;48.638;-2.020;2023-10-31T06:11:42;100083.56;;;16.38;100.00
53960;BME280;39866;48.638;-2.020;2023-10-31T06:14:09;100088.84;;;16.39;100.00
53960;BME280;39866;48.638;-2.020;2023-10-31T06:16:42;100100.25;;;16.43;100.00
53960;BME280;39866;48.638;-2.020;2023-10-31T06:19:08;100104.56;;;16.31;100.00
53960;BME280;39866;48.638;-2.020;2023-10-31T06:21:33;100099.88;;;16.34;100.00
53960;BME280;39866;48.638;-2.020;2023-10-31T06:23:59;100100.06;;;16.31;100.00
53960;BME280;39866;48.638;-2.020;2023-10-31T06:26:24;100102.56;;;16.34;100.00
53960;BME280;39866;48.638;-2.020;2023-10-31T06:28:49;100098.81;;;16.37;100.00
53960;BME280;39866;48.638;-2.020;2023-10-31T06:31:15;100106.28;;;16.32;100.00
53960;BME280;39866;48.638;-2.020;2023-10-31T06:33:40;100108.41;;;16.27;100.00
53960;BME280;39866;48.638;-2.020;2023-10-31T06:36:06;100106.50;;;16.29;100.00
53960;BME280;39866;48.638;-2.020;2023-10-31T06:38:32;100109.75;;;16.34;100.00
53960;BME280;39866;48.638;-2.020;2023-10-31T06:40:58;100125.94;;;16.32;100.00
53960;BME280;39866;48.638;-2.020;2023-10-31T06:43:24;100125.38;;;16.27;100.00
53960;BME280;39866;48.638;-2.020;2023-10-31T06:45:52;100124.41;;;16.28;100.00
53960;BME280;39866;48.638;-2.020;2023-10-31T06:48:17;100133.25;;;16.30;100.00
53960;BME280;39866;48.638;-2.020;2023-10-31T06:50:43;100127.88;;;16.30;100.00
53960;BME280;39866;48.638;-2.020;2023-10-31T06:53:08;100136.69;;;16.32;100.00
53960;BME280;39866;48.638;-2.020;2023-10-31T06:55:33;100146.13;;;16.25;100.00
53960;BME280;39866;48.638;-2.020;2023-10-31T06:58:02;100145.53;;;16.34;100.00
53960;BME280;39866;48.638;-2.020;2023-10-31T07:00:27;100154.84;;;16.29;100.00
53960;BME280;39866;48.638;-2.020;2023-10-31T07:02:53;100163.84;;;16.28;100.00
53960;BME280;39866;48.638;-2.020;2023-10-31T07:05:18;100155.31;;;16.21;100.00
53960;BME280;39866;48.638;-2.020;2023-10-31T07:07:46;100165.66;;;16.27;100.00
53960;BME280;39866;48.638;-2.020;2023-10-31T07:10:11;100164.50;;;16.17;100.00
53960;BME280;39866;48.638;-2.020;2023-10-31T07:12:37;100168.75;;;16.21;100.00
53960;BME280;39866;48.638;-2.020;2023-10-31T07:15:03;100177.56;;;16.23;100.00
53960;BME280;39866;48.638;-2.020;2023-10-31T07:17:30;100189.09;;;16.25;100.00
53960;BME280;39866;48.638;-2.020;2023-10-31T07:19:55;100185.44;;;16.26;100.00
53960;BME280;39866;48.638;-2.020;2023-10-31T07:22:21;100189.56;;;16.32;100.00
53960;BME280;39866;48.638;-2.020;2023-10-31T07:24:47;100191.22;;;16.34;100.00
53960;BME280;39866;48.638;-2.020;2023-10-31T07:27:13;100197.72;;;16.30;100.00
53960;BME280;39866;48.638;-2.020;2023-10-31T07:29:39;100193.78;;;16.36;100.00
53960;BME280;39866;48.638;-2.020;2023-10-31T07:32:06;100196.13;;;16.42;100.00
53960;BME280;39866;48.638;-2.020;2023-10-31T07:34:31;100204.84;;;16.46;100.00
53960;BME280;39866;48.638;-2.020;2023-10-31T07:36:57;100212.69;;;16.49;100.00
53960;BME280;39866;48.638;-2.020;2023-10-31T07:39:22;100209.44;;;16.44;100.00
53960;BME280;39866;48.638;-2.020;2023-10-31T07:41:48;100210.13;;;16.47;100.00
53960;BME280;39866;48.638;-2.020;2023-10-31T07:44:16;100204.84;;;16.46;100.00
53960;BME280;39866;48.638;-2.020;2023-10-31T07:46:41;100214.25;;;16.53;100.00
53960;BME280;39866;48.638;-2.020;2023-10-31T07:49:07;100214.25;;;16.53;100.00
53960;BME280;39866;48.638;-2.020;2023-10-31T07:51:32;100216.84;;;16.54;100.00
53960;BME280;39866;48.638;-2.020;2023-10-31T07:54:01;100222.22;;;16.54;100.00
53960;BME280;39866;48.638;-2.020;2023-10-31T07:56:26;100223.19;;;16.68;100.00
53960;BME280;39866;48.638;-2.020;2023-10-31T07:58:51;100219.53;;;16.69;100.00
53960;BME280;39866;48.638;-2.020;2023-10-31T08:01:18;100237.63;;;16.81;100.00
53960;BME280;39866;48.638;-2.020;2023-10-31T08:03:47;100232.25;;;16.81;100.00
53960;BME280;39866;48.638;-2.020;2023-10-31T08:06:13;100230.50;;;16.80;100.00
53960;BME280;39866;48.638;-2.020;2023-10-31T08:08:39;100241.16;;;16.81;100.00
53960;BME280;39866;48.638;-2.020;2023-10-31T08:11:07;100242.13;;;16.80;100.00
53960;BME280;39866;48.638;-2.020;2023-10-31T08:13:33;100242.13;;;16.80;100.00
53960;BME280;39866;48.638;-2.020;2023-10-31T08:15:58;100251.72;;;16.84;100.00
53960;BME280;39866;48.638;-2.020;2023-10-31T08:18:26;100242.50;;;16.89;100.00
53960;BME280;39866;48.638;-2.020;2023-10-31T08:20:57;100254.81;;;16.93;100.00
53960;BME280;39866;48.638;-2.020;2023-10-31T08:23:23;100253.84;;;16.94;100.00
53960;BME280;39866;48.638;-2.020;2023-10-31T08:25:48;100256.13;;;16.86;100.00
53960;BME280;39866;48.638;-2.020;2023-10-31T08:28:14;100260.59;;;16.87;100.00
53960;BME280;39866;48.638;-2.020;2023-10-31T08:30:39;100273.81;;;16.90;100.00
53960;BME280;39866;48.638;-2.020;2023-10-31T08:33:08;100271.78;;;16.93;100.00
53960;BME280;39866;48.638;-2.020;2023-10-31T08:35:33;100270.56;;;16.99;100.00
53960;BME280;39866;48.638;-2.020;2023-10-31T08:37:59;100273.03;;;17.02;100.00
53960;BME280;39866;48.638;-2.020;2023-10-31T08:40:24;100263.19;;;17.02;100.00
53960;BME280;39866;48.638;-2.020;2023-10-31T08:42:50;100269.19;;;17.06;100.00
53960;BME280;39866;48.638;-2.020;2023-10-31T08:45:15;100267.19;;;17.09;100.00
53960;BME280;39866;48.638;-2.020;2023-10-31T08:47:40;100270.16;;;17.05;100.00
53960;BME280;39866;48.638;-2.020;2023-10-31T08:50:06;100277.38;;;17.04;100.00
53960;BME280;39866;48.638;-2.020;2023-10-31T08:52:34;100282.66;;;17.06;100.00
53960;BME280;39866;48.638;-2.020;2023-10-31T08:54:59;100281.03;;;17.03;100.00
53960;BME280;39866;48.638;-2.020;2023-10-31T08:57:25;100288.03;;;17.06;100.00
53960;BME280;39866;48.638;-2.020;2023-10-31T08:59:50;100300.13;;;17.13;100.00
53960;BME280;39866;48.638;-2.020;2023-10-31T09:02:15;100297.44;;;17.13;100.00
53960;BME280;39866;48.638;-2.020;2023-10-31T09:04:41;100293.22;;;17.23;100.00
53960;BME280;39866;48.638;-2.020;2023-10-31T09:07:06;100291.41;;;17.24;100.00
53960;BME280;39866;48.638;-2.020;2023-10-31T09:09:34;100298.91;;;17.19;100.00
53960;BME280;39866;48.638;-2.020;2023-10-31T09:12:02;100309.94;;;17.28;100.00
53960;BME280;39866;48.638;-2.020;2023-10-31T09:14:28;100295.91;;;17.38;100.00
53960;BME280;39866;48.638;-2.020;2023-10-31T09:16:53;100305.00;;;17.49;100.00
53960;BME280;39866;48.638;-2.020;2023-10-31T09:19:19;100313.09;;;17.49;100.00
53960;BME280;39866;48.638;-2.020;2023-10-31T09:21:44;100306.16;;;17.45;100.00
53960;BME280;39866;48.638;-2.020;2023-10-31T09:24:10;100307.22;;;17.57;100.00
53960;BME280;39866;48.638;-2.020;2023-10-31T09:26:41;100319.81;;;17.56;100.00
53960;BME280;39866;48.638;-2.020;2023-10-31T09:29:12;100313.75;;;17.53;100.00
53960;BME280;39866;48.638;-2.020;2023-10-31T09:31:38;100318.72;;;17.59;100.00
53960;BME280;39866;48.638;-2.020;2023-10-31T09:34:03;100315.19;;;17.58;100.00
53960;BME280;39866;48.638;-2.020;2023-10-31T09:36:31;100315.97;;;17.46;100.00
53960;BME280;39866;48.638;-2.020;2023-10-31T09:38:57;100317.00;;;17.58;100.00
53960;BME280;39866;48.638;-2.020;2023-10-31T09:41:22;100322.50;;;17.56;100.00
53960;BME280;39866;48.638;-2.020;2023-10-31T09:43:48;100327.97;;;17.55;100.00
53960;BME280;39866;48.638;-2.020;2023-10-31T09:46:13;100323.66;;;17.52;100.00
53960;BME280;39866;48.638;-2.020;2023-10-31T09:48:39;100329.13;;;17.65;100.00
53960;BME280;39866;48.638;-2.020;2023-10-31T09:51:06;100320.84;;;17.68;100.00
53960;BME280;39866;48.638;-2.020;2023-10-31T09:53:33;100336.78;;;17.71;100.00
53960;BME280;39866;48.638;-2.020;2023-10-31T09:55:59;100332.69;;;17.80;100.00
53960;BME280;39866;48.638;-2.020;2023-10-31T09:58:24;100328.03;;;17.82;100.00
53960;BME280;39866;48.638;-2.020;2023-10-31T10:00:50;100333.78;;;17.90;100.00
53960;BME280;39866;48.638;-2.020;2023-10-31T10:03:16;100340.81;;;17.93;100.00
53960;BME280;39866;48.638;-2.020;2023-10-31T10:05:43;100335.03;;;17.99;100.00
53960;BME280;39866;48.638;-2.020;2023-10-31T10:08:09;100330.78;;;17.95;100.00
53960;BME280;39866;48.638;-2.020;2023-10-31T10:10:35;100328.28;;;18.06;100.00
53960;BME280;39866;48.638;-2.020;2023-10-31T10:13:02;100329.13;;;18.06;100.00
53960;BME280;39866;48.638;-2.020;2023-10-31T10:15:28;100327.28;;;18.07;100.00
53960;BME280;39866;48.638;-2.020;2023-10-31T10:17:54;100337.88;;;18.10;100.00
53960;BME280;39866;48.638;-2.020;2023-10-31T10:20:19;100340.56;;;18.10;100.00
53960;BME280;39866;48.638;-2.020;2023-10-31T10:22:45;100347.53;;;18.27;100.00
53960;BME280;39866;48.638;-2.020;2023-10-31T10:25:15;100344.72;;;18.28;100.00
53960;BME280;39866;48.638;-2.020;2023-10-31T10:27:42;100348.50;;;18.26;100.00
53960;BME280;39866;48.638;-2.020;2023-10-31T10:30:08;100341.03;;;18.17;100.00
53960;BME280;39866;48.638;-2.020;2023-10-31T10:32:34;100343.97;;;18.26;100.00
53960;BME280;39866;48.638;-2.020;2023-10-31T10:35:00;100353.03;;;18.25;100.00
53960;BME280;39866;48.638;-2.020;2023-10-31T10:37:29;100353.03;;;18.25;100.00
53960;BME280;39866;48.638;-2.020;2023-10-31T10:39:56;100347.00;;;18.35;100.00
53960;BME280;39866;48.638;-2.020;2023-10-31T10:42:33;100357.03;;;18.32;100.00
53960;BME280;39866;48.638;-2.020;2023-10-31T10:45:02;100358.78;;;18.34;100.00
53960;BME280;39866;48.638;-2.020;2023-10-31T10:47:29;100353.81;;;18.40;100.00
53960;BME280;39866;48.638;-2.020;2023-10-31T10:49:59;100359.66;;;18.47;100.00
53960;BME280;39866;48.638;-2.020;2023-10-31T10:52:30;100362.69;;;18.42;100.00
53960;BME280;39866;48.638;-2.020;2023-10-31T10:55:19;100353.22;;;18.49;100.00
53960;BME280;39866;48.638;-2.020;2023-10-31T10:58:08;100362.25;;;18.48;100.00
53960;BME280;39866;48.638;-2.020;2023-10-31T11:00:37;100361.59;;;18.45;100.00
53960;BME280;39866;48.638;-2.020;2023-10-31T11:03:05;100356.06;;;18.73;100.00
53960;BME280;39866;48.638;-2.020;2023-10-31T11:05:32;100356.19;;;18.72;100.00
53960;BME280;39866;48.638;-2.020;2023-10-31T11:07:58;100349.44;;;18.65;100.00
53960;BME280;39866;48.638;-2.020;2023-10-31T11:10:25;100354.50;;;18.56;100.00
53960;BME280;39866;48.638;-2.020;2023-10-31T11:12:51;100360.13;;;18.53;100.00
53960;BME280;39866;48.638;-2.020;2023-10-31T11:15:17;100367.03;;;18.58;100.00
53960;BME280;39866;48.638;-2.020;2023-10-31T11:17:49;100364.03;;;18.62;100.00
53960;BME280;39866;48.638;-2.020;2023-10-31T11:20:16;100353.66;;;18.69;100.00
53960;BME280;39866;48.638;-2.020;2023-10-31T11:22:46;100358.72;;;18.61;100.00
53960;BME280;39866;48.638;-2.020;2023-10-31T11:25:20;100360.53;;;18.74;100.00
53960;BME280;39866;48.638;-2.020;2023-10-31T11:27:52;100362.56;;;18.71;100.00
53960;BME280;39866;48.638;-2.020;2023-10-31T11:32:53;100365.81;;;18.76;100.00
53960;BME280;39866;48.638;-2.020;2023-10-31T11:35:19;100371.22;;;18.89;100.00
53960;BME280;39866;48.638;-2.020;2023-10-31T11:37:50;100359.88;;;18.84;100.00
53960;BME280;39866;48.638;-2.020;2023-10-31T11:40:26;100364.94;;;18.88;100.00
53960;BME280;39866;48.638;-2.020;2023-10-31T11:42:53;100365.06;;;18.87;100.00
53960;BME280;39866;48.638;-2.020;2023-10-31T11:45:29;100357.63;;;18.90;100.00
53960;BME280;39866;48.638;-2.020;2023-10-31T11:47:56;100341.22;;;19.06;100.00
53960;BME280;39866;48.638;-2.020;2023-10-31T11:50:25;100358.91;;;19.10;100.00
53960;BME280;39866;48.638;-2.020;2023-10-31T11:55:49;100347.72;;;18.91;100.00
53960;BME280;39866;48.638;-2.020;2023-10-31T11:58:22;100346.94;;;19.01;100.00
53960;BME280;39866;48.638;-2.020;2023-10-31T12:00:50;100349.75;;;19.00;100.00
53960;BME280;39866;48.638;-2.020;2023-10-31T12:03:18;100356.34;;;18.96;100.00
53960;BME280;39866;48.638;-2.020;2023-10-31T12:05:59;100355.88;;;19.02;100.00
53960;BME280;39866;48.638;-2.020;2023-10-31T12:08:30;100363.91;;;19.03;100.00
53960;BME280;39866;48.638;-2.020;2023-10-31T12:13:36;100366.91;;;18.99;100.00
53960;BME280;39866;48.638;-2.020;2023-10-31T12:16:02;100361.06;;;19.05;100.00
53960;BME280;39866;48.638;-2.020;2023-10-31T12:18:28;100369.28;;;19.16;100.00
53960;BME280;39866;48.638;-2.020;2023-10-31T12:20:54;100376.00;;;19.11;100.00
53960;BME280;39866;48.638;-2.020;2023-10-31T12:23:19;100373.91;;;19.14;100.00
53960;BME280;39866;48.638;-2.020;2023-10-31T12:25:49;100360.66;;;19.11;100.00
53960;BME280;39866;48.638;-2.020;2023-10-31T12:28:24;100360.00;;;19.08;100.00
53960;BME280;39866;48.638;-2.020;2023-10-31T12:30:54;100356.66;;;19.17;100.00
53960;BME280;39866;48.638;-2.020;2023-10-31T12:33:21;100364.09;;;19.13;100.00
53960;BME280;39866;48.638;-2.020;2023-10-31T12:35:51;100359.56;;;19.26;100.00
53960;BME280;39866;48.638;-2.020;2023-10-31T12:38:17;100357.72;;;19.14;100.00